Time;durP1;ratioP1;P1;durP2;ratioP2;P2;SDS_P1;SDS_P2;PMS_P1;PMS_P2;Temp;Humidity;BMP_temperature;BMP_pressure;BME280_temperature;BME280_humidity;BME280_pressure;Samples;Min_cycle;Max_cycle;Signal;HPM_P1;HPM_P2
2021/05/16 00:00:40;;;;;;;0.60;0.30;;;;;;;;;;5033287;28;20049;-75
2021/05/16 00:03:05;;;;;;;0.93;0.30;;;;;;;;;;5015532;28;20060;-75
2021/05/16 00:05:31;;;;;;;0.43;0.20;;;;;;;;;;4999159;28;20049;-75
2021/05/16 00:07:57;;;;;;;0.30;0.20;;;;;;;;;;4999362;28;20473;-75
2021/05/16 00:10:22;;;;;;;0.70;0.30;;;;;;;;;;4982963;28;20021;-75
2021/05/16 00:12:48;;;;;;;1.10;0.20;;;;;;;;;;5015425;28;20495;-75
2021/05/16 00:15:14;;;;;;;0.53;0.30;;;;;;;;;;4999048;28;20053;-75
2021/05/16 00:17:40;;;;;;;0.80;0.40;;;;;;;;;;5015471;28;20453;-75
2021/05/16 00:20:09;;;;;;;0.90;0.30;;;;;;;;;;4999096;28;20053;-75
2021/05/16 00:22:35;;;;;;;0.40;0.20;;;;;;;;;;5032939;28;20029;-75
2021/05/16 00:25:00;;;;;;;1.20;0.30;;;;;;;;;;5015370;28;20056;-75
2021/05/16 00:27:26;;;;;;;0.60;0.20;;;;;;;;;;4999463;28;20140;-75
2021/05/16 00:29:51;;;;;;;0.20;0.20;;;;;;;;;;5015319;28;20032;-75
2021/05/16 00:32:16;;;;;;;0.30;0.23;;;;;;;;;;5015611;28;20030;-75
2021/05/16 00:34:42;;;;;;;0.40;0.23;;;;;;;;;;5037075;28;20032;-75
2021/05/16 00:37:07;;;;;;;0.43;0.30;;;;;;;;;;5036893;28;20080;-75
2021/05/16 00:39:32;;;;;;;0.20;0.20;;;;;;;;;;5019274;28;20064;-75
2021/05/16 00:41:58;;;;;;;0.30;0.27;;;;;;;;;;5003739;28;20095;-75
2021/05/16 00:44:23;;;;;;;0.57;0.30;;;;;;;;;;5036808;28;20049;-75
2021/05/16 00:46:49;;;;;;;0.50;0.30;;;;;;;;;;5019248;28;20120;-75
2021/05/16 00:49:15;;;;;;;0.53;0.20;;;;;;;;;;5019351;28;20030;-75
2021/05/16 00:51:41;;;;;;;0.70;0.30;;;;;;;;;;5036647;28;20446;-75
2021/05/16 00:54:06;;;;;;;0.73;0.25;;;;;;;;;;5002701;28;20025;-75
2021/05/16 00:56:32;;;;;;;0.33;0.20;;;;;;;;;;5002473;28;20079;-75
2021/05/16 00:58:59;;;;;;;0.40;0.20;;;;;;;;;;5018930;28;20037;-75
2021/05/16 01:01:26;;;;;;;0.43;0.30;;;;;;;;;;5019094;28;20025;-75
2021/05/16 01:03:51;;;;;;;0.40;0.30;;;;;;;;;;5019163;28;20032;-75
2021/05/16 01:06:16;;;;;;;0.47;0.20;;;;;;;;;;5036391;28;20026;-75
2021/05/16 01:08:45;;;;;;;0.60;0.30;;;;;;;;;;5036378;28;20464;-75
2021/05/16 01:11:11;;;;;;;0.43;0.30;;;;;;;;;;5002343;28;20564;-75
2021/05/16 01:13:36;;;;;;;1.13;0.40;;;;;;;;;;5002273;28;20108;-75
2021/05/16 01:16:02;;;;;;;0.43;0.20;;;;;;;;;;5003032;28;20080;-75
2021/05/16 01:18:27;;;;;;;0.30;0.20;;;;;;;;;;5036183;28;20025;-75
2021/05/16 01:20:52;;;;;;;0.40;0.30;;;;;;;;;;5018539;28;20021;-75
2021/05/16 01:23:22;;;;;;;0.20;0.20;;;;;;;;;;5002063;28;20399;-75
2021/05/16 01:25:48;;;;;;;0.63;0.30;;;;;;;;;;5036076;28;20025;-75
2021/05/16 01:28:14;;;;;;;0.40;0.20;;;;;;;;;;5018434;28;20385;-75
2021/05/16 01:30:40;;;;;;;0.95;0.30;;;;;;;;;;5018227;28;20056;-75
2021/05/16 01:33:05;;;;;;;0.40;0.30;;;;;;;;;;5001895;28;20071;-75
2021/05/16 01:35:31;;;;;;;0.20;0.20;;;;;;;;;;5018259;28;20030;-75
2021/05/16 01:37:56;;;;;;;0.43;0.20;;;;;;;;;;5018275;28;20029;-75
2021/05/16 01:40:21;;;;;;;0.70;0.30;;;;;;;;;;5001822;28;20037;-75
2021/05/16 01:42:52;;;;;;;0.27;0.20;;;;;;;;;;5018009;28;20447;-75
2021/05/16 01:45:20;;;;;;;0.68;0.30;;;;;;;;;;5017600;28;20385;-75
2021/05/16 01:47:45;;;;;;;0.30;0.25;;;;;;;;;;5017843;28;20026;-75
2021/05/16 01:50:13;;;;;;;0.70;0.20;;;;;;;;;;5001745;28;20040;-75
2021/05/16 01:52:39;;;;;;;0.28;0.10;;;;;;;;;;4985412;28;20022;-75
2021/05/16 01:55:05;;;;;;;1.65;0.30;;;;;;;;;;5035519;28;20033;-75
2021/05/16 01:57:30;;;;;;;0.43;0.17;;;;;;;;;;5035257;28;20034;-75
2021/05/16 01:59:56;;;;;;;0.50;0.30;;;;;;;;;;5001840;28;20029;-75
2021/05/16 02:02:21;;;;;;;0.83;0.20;;;;;;;;;;5001443;28;20045;-75
2021/05/16 02:04:47;;;;;;;0.20;0.20;;;;;;;;;;5001439;28;20441;-75
2021/05/16 02:07:12;;;;;;;0.27;0.20;;;;;;;;;;5017830;28;20030;-75
2021/05/16 02:09:37;;;;;;;0.60;0.30;;;;;;;;;;5001258;28;20061;-75
2021/05/16 02:12:03;;;;;;;0.50;0.20;;;;;;;;;;5001495;28;20025;-75
2021/05/16 02:14:30;;;;;;;0.30;0.20;;;;;;;;;;5017431;28;20422;-75
2021/05/16 02:16:56;;;;;;;0.38;0.20;;;;;;;;;;5001226;28;20033;-75
2021/05/16 02:19:22;;;;;;;0.30;0.20;;;;;;;;;;5017414;28;20041;-75
2021/05/16 02:21:47;;;;;;;0.20;0.20;;;;;;;;;;5000870;28;20124;-75
2021/05/16 02:24:12;;;;;;;0.20;0.17;;;;;;;;;;5001120;28;20060;-75
2021/05/16 02:26:38;;;;;;;0.50;0.20;;;;;;;;;;5035028;28;20101;-75
2021/05/16 02:29:04;;;;;;;0.50;0.20;;;;;;;;;;5001039;28;20534;-75
2021/05/16 02:31:29;;;;;;;0.40;0.30;;;;;;;;;;5000815;28;20127;-75
2021/05/16 02:33:55;;;;;;;0.57;0.20;;;;;;;;;;5017551;28;20036;-75
2021/05/16 02:36:20;;;;;;;0.53;0.20;;;;;;;;;;5034727;28;20043;-75
2021/05/16 02:38:45;;;;;;;0.50;0.20;;;;;;;;;;5000710;28;20025;-75
2021/05/16 02:41:11;;;;;;;0.50;0.30;;;;;;;;;;5016975;28;20025;-75
2021/05/16 02:43:36;;;;;;;0.20;0.20;;;;;;;;;;5017215;28;20029;-75
2021/05/16 02:46:01;;;;;;;0.53;0.20;;;;;;;;;;5000707;28;20388;-75
2021/05/16 02:48:27;;;;;;;0.60;0.20;;;;;;;;;;5000582;28;20497;-75
2021/05/16 02:50:52;;;;;;;0.30;0.20;;;;;;;;;;5000592;28;20111;-75
2021/05/16 02:53:20;;;;;;;0.20;0.20;;;;;;;;;;5016710;28;20049;-75
2021/05/16 02:55:48;;;;;;;0.82;0.38;;;;;;;;;;5016399;28;20159;-75
2021/05/16 02:58:14;;;;;;;0.75;0.20;;;;;;;;;;5016766;28;20025;-75
2021/05/16 03:00:39;;;;;;;0.17;0.17;;;;;;;;;;5016689;28;20044;-75
2021/05/16 03:03:06;;;;;;;0.47;0.20;;;;;;;;;;5034169;28;20022;-75
2021/05/16 03:05:31;;;;;;;0.25;0.17;;;;;;;;;;5000282;28;20029;-75
2021/05/16 03:07:56;;;;;;;0.33;0.20;;;;;;;;;;5016592;28;20048;-75
2021/05/16 03:10:22;;;;;;;0.20;0.20;;;;;;;;;;5016598;28;20060;-75
2021/05/16 03:12:47;;;;;;;0.30;0.20;;;;;;;;;;5000057;28;20052;-75
2021/05/16 03:15:13;;;;;;;0.90;0.30;;;;;;;;;;5000044;28;20064;-75
2021/05/16 03:17:38;;;;;;;0.75;0.30;;;;;;;;;;4999941;28;20033;-75
2021/05/16 03:20:04;;;;;;;0.40;0.30;;;;;;;;;;5000125;28;20064;-75
2021/05/16 03:22:30;;;;;;;0.57;0.30;;;;;;;;;;5034012;28;20118;-75
2021/05/16 03:24:55;;;;;;;0.28;0.20;;;;;;;;;;5033852;28;20108;-74
2021/05/16 03:27:21;;;;;;;0.40;0.20;;;;;;;;;;5033809;28;20053;-75
2021/05/16 03:29:46;;;;;;;0.40;0.20;;;;;;;;;;5016441;28;20451;-75
2021/05/16 03:32:11;;;;;;;0.50;0.27;;;;;;;;;;4999826;28;20427;-75
2021/05/16 03:34:37;;;;;;;0.20;0.20;;;;;;;;;;5033695;28;20084;-75
2021/05/16 03:37:02;;;;;;;0.20;0.20;;;;;;;;;;5016062;28;20049;-75
2021/05/16 03:39:27;;;;;;;0.30;0.20;;;;;;;;;;5016158;28;20032;-75
2021/05/16 03:41:55;;;;;;;0.10;0.10;;;;;;;;;;5015957;28;20104;-75
2021/05/16 03:44:24;;;;;;;0.25;0.13;;;;;;;;;;4999967;28;20056;-75
2021/05/16 03:46:50;;;;;;;0.85;0.20;;;;;;;;;;4983522;28;20070;-75
2021/05/16 03:49:16;;;;;;;0.40;0.23;;;;;;;;;;4999440;28;20025;-74
2021/05/16 03:51:42;;;;;;;0.55;0.20;;;;;;;;;;4999816;28;20025;-75
2021/05/16 03:54:08;;;;;;;1.23;0.32;;;;;;;;;;4999951;28;20392;-75
2021/05/16 03:56:34;;;;;;;0.37;0.20;;;;;;;;;;5015628;28;20058;-75
2021/05/16 03:58:59;;;;;;;0.30;0.13;;;;;;;;;;5015714;28;20069;-74
2021/05/16 04:01:26;;;;;;;0.20;0.20;;;;;;;;;;5015700;28;20053;-74
2021/05/16 04:03:51;;;;;;;0.20;0.20;;;;;;;;;;5015804;28;20531;-75
2021/05/16 04:06:16;;;;;;;0.60;0.30;;;;;;;;;;5015534;28;20065;-75
2021/05/16 04:08:42;;;;;;;0.40;0.20;;;;;;;;;;5033186;28;20030;-74
2021/05/16 04:11:07;;;;;;;0.30;0.13;;;;;;;;;;5015455;28;20074;-75
2021/05/16 04:13:32;;;;;;;0.53;0.20;;;;;;;;;;5015501;28;20080;-75
2021/05/16 04:15:58;;;;;;;0.33;0.23;;;;;;;;;;5015313;28;20021;-75
2021/05/16 04:18:23;;;;;;;0.40;0.30;;;;;;;;;;5033224;28;20083;-75
2021/05/16 04:20:49;;;;;;;0.60;0.30;;;;;;;;;;5033069;28;20400;-75
2021/05/16 04:23:14;;;;;;;0.60;0.20;;;;;;;;;;4999038;28;20443;-75
2021/05/16 04:25:39;;;;;;;0.57;0.27;;;;;;;;;;5033013;28;20061;-75
2021/05/16 04:28:05;;;;;;;0.43;0.20;;;;;;;;;;5033004;28;20025;-75
2021/05/16 04:30:30;;;;;;;0.60;0.30;;;;;;;;;;5015504;28;20049;-75
2021/05/16 04:32:55;;;;;;;0.20;0.13;;;;;;;;;;5015279;28;20476;-74
2021/05/16 04:35:21;;;;;;;0.40;0.20;;;;;;;;;;5033041;28;20558;-75
2021/05/16 04:37:46;;;;;;;0.53;0.20;;;;;;;;;;5015243;28;20026;-75
2021/05/16 04:40:12;;;;;;;0.40;0.20;;;;;;;;;;5033015;28;20112;-75
2021/05/16 04:42:37;;;;;;;0.30;0.20;;;;;;;;;;5015292;28;20032;-74
2021/05/16 04:45:04;;;;;;;0.30;0.20;;;;;;;;;;5032843;28;20055;-75
2021/05/16 04:47:29;;;;;;;0.22;0.20;;;;;;;;;;4998846;28;20025;-75
2021/05/16 04:49:55;;;;;;;0.20;0.20;;;;;;;;;;4982565;28;20068;-75
2021/05/16 04:52:20;;;;;;;0.20;0.20;;;;;;;;;;5015352;28;20027;-75
2021/05/16 04:54:45;;;;;;;0.40;0.20;;;;;;;;;;5015182;28;20492;-75
2021/05/16 05:02:07;;;;;;;0.38;0.17;;;;;;;;;;5014250;28;20101;-78
2021/05/16 05:04:36;;;;;;;0.55;0.30;;;;;;;;;;4999249;28;20033;-78
2021/05/16 05:07:06;;;;;;;0.10;0.10;;;;;;;;;;4966625;28;20053;-78
2021/05/16 05:09:35;;;;;;;0.30;0.20;;;;;;;;;;4982284;28;20026;-79
2021/05/16 05:12:00;;;;;;;0.20;0.20;;;;;;;;;;4982559;28;20026;-78
2021/05/16 05:14:25;;;;;;;0.70;0.23;;;;;;;;;;4998044;28;20117;-78
2021/05/16 05:16:51;;;;;;;0.20;0.20;;;;;;;;;;4982235;28;20029;-78
2021/05/16 05:19:16;;;;;;;0.40;0.30;;;;;;;;;;4983691;28;20041;-78
2021/05/16 05:21:41;;;;;;;0.30;0.20;;;;;;;;;;5001571;28;20026;-78
2021/05/16 05:24:07;;;;;;;0.20;0.20;;;;;;;;;;5002012;28;20026;-79
2021/05/16 05:26:33;;;;;;;0.32;0.25;;;;;;;;;;5001778;28;20093;-80
2021/05/16 05:28:58;;;;;;;0.87;0.20;;;;;;;;;;5001976;28;20042;-78
2021/05/16 05:31:24;;;;;;;0.23;0.13;;;;;;;;;;4969329;28;20025;-78
2021/05/16 05:33:49;;;;;;;0.47;0.30;;;;;;;;;;4985841;28;20086;-78
2021/05/16 05:36:14;;;;;;;0.20;0.10;;;;;;;;;;5001723;28;20026;-78
2021/05/16 05:38:40;;;;;;;0.10;0.10;;;;;;;;;;5001826;28;20029;-78
2021/05/16 05:41:05;;;;;;;0.40;0.20;;;;;;;;;;4966072;28;20026;-78
2021/05/16 05:43:30;;;;;;;0.77;0.20;;;;;;;;;;4982028;28;20057;-78
2021/05/16 05:45:56;;;;;;;0.30;0.20;;;;;;;;;;4981698;28;20030;-78
2021/05/16 05:48:21;;;;;;;0.30;0.20;;;;;;;;;;4981797;28;20034;-79
2021/05/16 05:50:46;;;;;;;0.40;0.23;;;;;;;;;;4998037;28;20049;-78
2021/05/16 05:53:12;;;;;;;0.33;0.20;;;;;;;;;;4982028;28;20485;-78
2021/05/16 05:55:38;;;;;;;0.47;0.20;;;;;;;;;;4965970;28;20378;-78
2021/05/16 05:58:03;;;;;;;0.30;0.20;;;;;;;;;;4998033;28;20402;-79
2021/05/16 06:00:29;;;;;;;0.33;0.20;;;;;;;;;;4965141;28;20116;-78
2021/05/16 06:02:57;;;;;;;0.10;0.10;;;;;;;;;;4965922;28;20093;-79
2021/05/16 06:05:25;;;;;;;0.20;0.10;;;;;;;;;;4981625;28;20022;-78
2021/05/16 06:07:51;;;;;;;0.45;0.10;;;;;;;;;;4981587;28;20042;-78
2021/05/16 06:10:16;;;;;;;0.50;0.20;;;;;;;;;;4981489;28;20053;-78
2021/05/16 06:12:42;;;;;;;0.50;0.20;;;;;;;;;;4981099;28;20026;-78
2021/05/16 06:15:08;;;;;;;0.53;0.20;;;;;;;;;;4982348;28;20073;-78
2021/05/16 06:17:33;;;;;;;0.35;0.15;;;;;;;;;;4998993;28;20034;-79
2021/05/16 06:19:58;;;;;;;0.63;0.30;;;;;;;;;;4981158;28;20440;-78
2021/05/16 06:22:23;;;;;;;0.10;0.10;;;;;;;;;;4981680;28;20026;-78
2021/05/16 06:24:49;;;;;;;0.47;0.20;;;;;;;;;;4981548;28;20045;-80
2021/05/16 06:27:14;;;;;;;0.23;0.10;;;;;;;;;;4981639;28;20053;-78
2021/05/16 06:29:39;;;;;;;0.27;0.10;;;;;;;;;;4964399;28;20069;-78
2021/05/16 06:32:08;;;;;;;0.33;0.20;;;;;;;;;;4980413;28;20037;-78
2021/05/16 06:34:34;;;;;;;0.20;0.10;;;;;;;;;;4981389;28;20018;-78
2021/05/16 06:36:59;;;;;;;0.33;0.20;;;;;;;;;;4981345;28;20532;-78
2021/05/16 06:39:26;;;;;;;0.40;0.20;;;;;;;;;;4996949;28;20022;-78
2021/05/16 06:41:51;;;;;;;0.40;0.20;;;;;;;;;;4981103;28;20022;-79
2021/05/16 06:44:17;;;;;;;0.53;0.23;;;;;;;;;;4996974;28;20029;-78
2021/05/16 06:46:42;;;;;;;0.40;0.20;;;;;;;;;;4996658;28;20034;-78
2021/05/16 06:49:07;;;;;;;0.20;0.13;;;;;;;;;;4997008;28;20030;-78
2021/05/16 06:51:35;;;;;;;0.33;0.20;;;;;;;;;;4998147;28;20022;-78
2021/05/16 06:54:00;;;;;;;0.25;0.20;;;;;;;;;;4980991;28;20026;-78
2021/05/16 06:56:26;;;;;;;0.60;0.13;;;;;;;;;;4997302;28;20403;-78
2021/05/16 06:58:51;;;;;;;0.37;0.20;;;;;;;;;;4980295;28;20516;-78
2021/05/16 07:01:16;;;;;;;0.47;0.20;;;;;;;;;;4980095;28;20040;-78
2021/05/16 07:03:44;;;;;;;0.43;0.20;;;;;;;;;;4996379;28;20106;-78
2021/05/16 07:06:09;;;;;;;0.30;0.20;;;;;;;;;;4980355;28;20050;-78
2021/05/16 07:08:34;;;;;;;0.20;0.20;;;;;;;;;;4980210;28;20448;-78
2021/05/16 07:11:01;;;;;;;0.37;0.20;;;;;;;;;;4979892;28;20022;-78
2021/05/16 07:13:26;;;;;;;0.68;0.28;;;;;;;;;;4980600;28;20033;-78
2021/05/16 07:15:51;;;;;;;0.20;0.13;;;;;;;;;;4996622;28;20026;-78
2021/05/16 07:18:17;;;;;;;0.30;0.20;;;;;;;;;;4997735;28;20027;-78
2021/05/16 07:20:42;;;;;;;0.80;0.20;;;;;;;;;;5014992;28;20060;-78
2021/05/16 07:23:08;;;;;;;0.63;0.20;;;;;;;;;;4999726;28;20065;-78
2021/05/16 07:25:33;;;;;;;0.20;0.20;;;;;;;;;;4982691;28;20052;-78
2021/05/16 07:27:58;;;;;;;0.13;0.10;;;;;;;;;;4969498;28;20480;-79
2021/05/16 07:30:24;;;;;;;0.23;0.20;;;;;;;;;;5016960;28;20036;-78
2021/05/16 07:32:49;;;;;;;0.50;0.27;;;;;;;;;;4998560;28;20018;-78
2021/05/16 07:35:14;;;;;;;0.30;0.20;;;;;;;;;;4978603;28;20468;-81
2021/05/16 07:37:42;;;;;;;1.00;0.30;;;;;;;;;;4973684;28;20058;-80
2021/05/16 07:40:08;;;;;;;0.10;0.10;;;;;;;;;;4976243;28;20034;-79
2021/05/16 07:42:33;;;;;;;0.20;0.20;;;;;;;;;;4974185;28;20373;-80
2021/05/16 07:44:59;;;;;;;0.70;0.23;;;;;;;;;;4976055;28;20026;-80
2021/05/16 07:47:24;;;;;;;0.77;0.20;;;;;;;;;;4977270;28;20604;-80
2021/05/16 07:49:49;;;;;;;0.40;0.30;;;;;;;;;;4989230;28;20105;-81
2021/05/16 07:52:15;;;;;;;0.63;0.20;;;;;;;;;;4975793;28;20137;-80
2021/05/16 07:54:40;;;;;;;0.50;0.20;;;;;;;;;;4975782;28;20061;-82
2021/05/16 07:57:07;;;;;;;0.70;0.30;;;;;;;;;;4986023;28;20076;-80
2021/05/16 07:59:33;;;;;;;2.47;0.20;;;;;;;;;;4977754;28;20033;-80
2021/05/16 08:01:59;;;;;;;0.30;0.20;;;;;;;;;;4993198;28;20034;-80
2021/05/16 08:04:25;;;;;;;3.38;1.00;;;;;;;;;;5011125;28;20049;-81
2021/05/16 08:06:50;;;;;;;1.43;0.80;;;;;;;;;;4995076;28;20022;-79
2021/05/16 08:09:15;;;;;;;1.80;0.90;;;;;;;;;;4994264;28;20065;-80
2021/05/16 08:11:41;;;;;;;2.20;1.20;;;;;;;;;;4994797;28;20077;-79
2021/05/16 08:14:06;;;;;;;2.17;1.00;;;;;;;;;;4996100;28;20021;-81
2021/05/16 08:16:33;;;;;;;2.33;1.10;;;;;;;;;;4997374;28;20056;-81
2021/05/16 08:18:58;;;;;;;1.67;0.80;;;;;;;;;;4996728;28;20029;-81
2021/05/16 08:21:24;;;;;;;1.27;0.57;;;;;;;;;;5011841;28;20079;-81
2021/05/16 08:23:49;;;;;;;1.00;0.60;;;;;;;;;;4994686;28;20117;-81
2021/05/16 08:26:14;;;;;;;1.37;0.50;;;;;;;;;;4995452;28;20120;-81
2021/05/16 08:28:40;;;;;;;1.30;0.40;;;;;;;;;;4979188;28;20117;-83
2021/05/16 08:31:05;;;;;;;0.90;0.40;;;;;;;;;;4975660;28;20589;-80
2021/05/16 08:33:30;;;;;;;1.07;0.40;;;;;;;;;;4964255;28;20362;-79
2021/05/16 08:35:56;;;;;;;1.13;0.40;;;;;;;;;;4983213;28;20074;-80
2021/05/16 08:38:21;;;;;;;1.20;0.40;;;;;;;;;;5002692;28;20504;-80
2021/05/16 08:40:46;;;;;;;0.90;0.50;;;;;;;;;;4996006;28;20049;-80
2021/05/16 08:43:12;;;;;;;0.77;0.40;;;;;;;;;;4996382;28;20076;-78
2021/05/16 08:45:37;;;;;;;1.90;0.47;;;;;;;;;;4996101;28;20030;-78
2021/05/16 08:48:03;;;;;;;1.00;0.40;;;;;;;;;;4992339;28;20024;-79
2021/05/16 08:50:28;;;;;;;1.80;0.30;;;;;;;;;;4967303;28;20548;-79
2021/05/16 08:52:54;;;;;;;0.87;0.40;;;;;;;;;;4993569;28;20551;-78
2021/05/16 08:55:20;;;;;;;1.98;0.40;;;;;;;;;;4982250;28;20090;-78
2021/05/16 08:57:45;;;;;;;0.60;0.30;;;;;;;;;;4971821;28;20097;-78
2021/05/16 09:00:20;;;;;;;0.97;0.50;;;;;;;;;;4968898;28;20058;-78
2021/05/16 09:03:09;;;;;;;1.17;0.45;;;;;;;;;;4987767;28;20144;-79
2021/05/16 09:05:37;;;;;;;0.95;0.30;;;;;;;;;;4991890;28;20030;-78
2021/05/16 09:08:25;;;;;;;0.77;0.40;;;;;;;;;;4987691;28;20385;-78
2021/05/16 09:10:56;;;;;;;1.42;0.30;;;;;;;;;;4967927;28;20038;-78
2021/05/16 09:13:26;;;;;;;1.15;0.40;;;;;;;;;;4975864;28;20343;-78
2021/05/16 09:16:01;;;;;;;1.40;0.30;;;;;;;;;;4990352;28;20037;-78
2021/05/16 09:18:37;;;;;;;0.60;0.35;;;;;;;;;;5039822;28;20096;-78
2021/05/16 09:21:28;;;;;;;0.68;0.40;;;;;;;;;;5007146;28;20052;-78
2021/05/16 09:24:00;;;;;;;1.52;0.47;;;;;;;;;;4992822;28;20030;-79
2021/05/16 09:26:28;;;;;;;0.68;0.30;;;;;;;;;;5009026;28;20032;-79
2021/05/16 09:28:54;;;;;;;0.73;0.40;;;;;;;;;;5002726;28;20026;-79
2021/05/16 09:31:32;;;;;;;1.17;0.30;;;;;;;;;;4987579;28;20030;-80
2021/05/16 09:34:02;;;;;;;1.17;0.40;;;;;;;;;;4990768;28;20026;-79
2021/05/16 09:36:32;;;;;;;1.23;0.43;;;;;;;;;;4971002;28;20038;-79
2021/05/16 09:39:11;;;;;;;1.20;0.45;;;;;;;;;;5004901;28;20032;-79
2021/05/16 09:41:36;;;;;;;0.75;0.40;;;;;;;;;;5005585;28;20037;-79
2021/05/16 09:44:02;;;;;;;1.43;0.40;;;;;;;;;;4988113;28;20034;-79
2021/05/16 09:46:29;;;;;;;0.70;0.40;;;;;;;;;;5007036;28;20041;-79
2021/05/16 09:48:54;;;;;;;1.13;0.40;;;;;;;;;;5001420;28;20034;-78
2021/05/16 09:51:21;;;;;;;1.57;0.30;;;;;;;;;;5021953;28;20060;-78
2021/05/16 09:54:06;;;;;;;1.10;0.30;;;;;;;;;;5020048;28;20117;-79
2021/05/16 09:56:38;;;;;;;1.63;0.40;;;;;;;;;;4998409;28;20464;-78
2021/05/16 09:59:05;;;;;;;0.57;0.38;;;;;;;;;;5000044;28;20033;-79
2021/05/16 10:01:30;;;;;;;0.50;0.40;;;;;;;;;;4988391;28;20042;-78
2021/05/16 10:04:00;;;;;;;0.80;0.40;;;;;;;;;;5003100;28;20053;-80
2021/05/16 10:06:26;;;;;;;1.20;0.30;;;;;;;;;;4986324;28;20052;-81
2021/05/16 10:08:51;;;;;;;1.03;0.30;;;;;;;;;;4966036;28;20374;-80
2021/05/16 10:11:18;;;;;;;1.13;0.50;;;;;;;;;;4998620;28;20033;-80
2021/05/16 10:14:03;;;;;;;1.45;0.40;;;;;;;;;;4999704;28;20029;-78
2021/05/16 10:16:31;;;;;;;0.80;0.40;;;;;;;;;;5017172;28;20496;-79
2021/05/16 10:18:57;;;;;;;0.43;0.30;;;;;;;;;;4981592;28;20045;-79
2021/05/16 10:21:24;;;;;;;1.20;0.50;;;;;;;;;;4964156;28;20022;-78
2021/05/16 10:23:49;;;;;;;2.08;0.40;;;;;;;;;;4979892;28;20030;-78
2021/05/16 10:26:18;;;;;;;1.40;0.40;;;;;;;;;;4975784;28;20048;-79
2021/05/16 10:29:01;;;;;;;0.65;0.32;;;;;;;;;;4978344;28;20030;-79
2021/05/16 10:31:47;;;;;;;1.25;0.50;;;;;;;;;;4998023;28;20058;-80
2021/05/16 10:34:24;;;;;;;0.77;0.45;;;;;;;;;;4961775;28;20033;-78
2021/05/16 10:36:50;;;;;;;0.55;0.32;;;;;;;;;;5013968;28;20045;-78
2021/05/16 10:39:43;;;;;;;0.87;0.30;;;;;;;;;;4990237;28;20029;-78
2021/05/16 10:42:14;;;;;;;1.38;0.40;;;;;;;;;;5015907;28;20045;-79
2021/05/16 10:44:55;;;;;;;2.03;0.40;;;;;;;;;;4993617;28;20149;-76
2021/05/16 10:47:41;;;;;;;0.63;0.35;;;;;;;;;;4995520;28;20030;-83
2021/05/16 10:50:07;;;;;;;1.33;0.47;;;;;;;;;;5024199;28;20025;-82
2021/05/16 10:52:33;;;;;;;1.42;0.47;;;;;;;;;;5001242;28;20022;-83
2021/05/16 10:54:59;;;;;;;;;;;;;;;;;;4985338;28;20060;-82
2021/05/16 10:57:24;;;;;;;0.75;0.30;;;;;;;;;;4982313;28;19922;-83
2021/05/16 10:59:50;;;;;;;1.40;0.50;;;;;;;;;;4959926;28;20064;-83
2021/05/16 11:02:53;;;;;;;2.73;0.63;;;;;;;;;;4961776;28;20588;-83
2021/05/16 11:05:51;;;;;;;2.72;0.50;;;;;;;;;;4979341;28;20031;-83
2021/05/16 11:08:16;;;;;;;1.02;0.40;;;;;;;;;;4980715;28;20026;-83
2021/05/16 11:10:52;;;;;;;0.93;0.43;;;;;;;;;;4981543;28;20159;-83
2021/05/16 11:13:20;;;;;;;0.88;0.40;;;;;;;;;;4998779;28;20489;-83
2021/05/16 11:15:50;;;;;;;0.63;0.40;;;;;;;;;;4998015;28;20409;-83
2021/05/16 11:18:19;;;;;;;1.25;0.50;;;;;;;;;;4990911;28;20133;-83
2021/05/16 11:21:01;;;;;;;1.10;0.50;;;;;;;;;;4964774;28;20125;-83
2021/05/16 11:23:28;;;;;;;1.10;0.50;;;;;;;;;;4980550;28;20136;-82
2021/05/16 11:25:57;;;;;;;;;;;;;;;;;;4976661;28;20029;-82
2021/05/16 11:28:23;;;;;;;1.67;0.50;;;;;;;;;;4994220;28;20008;-79
2021/05/16 11:30:50;;;;;;;0.73;0.40;;;;;;;;;;5012263;28;20508;-79
2021/05/16 11:33:27;;;;;;;0.88;0.47;;;;;;;;;;5021737;28;20037;-79
2021/05/16 11:35:53;;;;;;;1.65;0.50;;;;;;;;;;5006343;28;20424;-80
2021/05/16 11:38:27;;;;;;;1.03;0.40;;;;;;;;;;4989850;28;20033;-79
2021/05/16 11:40:54;;;;;;;1.25;0.40;;;;;;;;;;4971658;28;20385;-79
2021/05/16 11:43:26;;;;;;;1.48;0.50;;;;;;;;;;5000730;28;20045;-79
2021/05/16 11:45:51;;;;;;;1.00;0.50;;;;;;;;;;5021838;28;20033;-79
2021/05/16 11:48:35;;;;;;;0.87;0.43;;;;;;;;;;4992966;28;20030;-80
2021/05/16 11:51:17;;;;;;;0.98;0.40;;;;;;;;;;4988451;28;20042;-80
2021/05/16 11:53:44;;;;;;;1.63;0.30;;;;;;;;;;4977553;28;20023;-79
2021/05/16 11:56:12;;;;;;;1.00;0.60;;;;;;;;;;4975115;28;20513;-79
2021/05/16 11:58:39;;;;;;;1.98;0.70;;;;;;;;;;4977681;28;20030;-77
2021/05/16 12:01:11;;;;;;;1.35;0.50;;;;;;;;;;4975239;28;20030;-80
2021/05/16 12:03:49;;;;;;;1.13;0.47;;;;;;;;;;4960995;28;20029;-80
2021/05/16 12:06:15;;;;;;;1.52;0.60;;;;;;;;;;4996720;28;20156;-80
2021/05/16 12:08:40;;;;;;;1.37;0.50;;;;;;;;;;5006835;28;20049;-80
2021/05/16 12:11:15;;;;;;;1.37;0.60;;;;;;;;;;5007445;28;20049;-79
2021/05/16 12:13:40;;;;;;;2.78;0.80;;;;;;;;;;4998922;28;20365;-79
2021/05/16 12:16:13;;;;;;;1.90;0.70;;;;;;;;;;5021838;28;20060;-78
2021/05/16 12:18:40;;;;;;;1.30;0.57;;;;;;;;;;5022609;28;20032;-79
2021/05/16 12:21:05;;;;;;;2.17;0.60;;;;;;;;;;4978382;28;20113;-80
2021/05/16 12:23:31;;;;;;;2.33;0.70;;;;;;;;;;4992806;28;20030;-81
2021/05/16 12:25:57;;;;;;;1.35;0.50;;;;;;;;;;4994829;28;20030;-80
2021/05/16 12:28:22;;;;;;;1.07;0.50;;;;;;;;;;4992898;28;20116;-80
2021/05/16 12:30:47;;;;;;;2.00;0.70;;;;;;;;;;4989831;28;20088;-80
2021/05/16 12:33:15;;;;;;;1.23;0.60;;;;;;;;;;5003911;28;20061;-80
2021/05/16 12:35:40;;;;;;;2.15;0.65;;;;;;;;;;5006178;28;20033;-80
2021/05/16 12:38:23;;;;;;;1.63;0.57;;;;;;;;;;4999962;28;20026;-80
2021/05/16 12:40:49;;;;;;;1.48;0.63;;;;;;;;;;4993647;28;20029;-80
2021/05/16 12:43:18;;;;;;;1.37;0.57;;;;;;;;;;5009357;28;20588;-80
2021/05/16 12:45:44;;;;;;;1.20;0.50;;;;;;;;;;5002809;28;20038;-80
2021/05/16 12:48:12;;;;;;;1.10;0.60;;;;;;;;;;5004400;28;20065;-79
2021/05/16 12:50:39;;;;;;;1.52;0.70;;;;;;;;;;5007176;28;20037;-80
2021/05/16 12:53:41;;;;;;;2.42;0.60;;;;;;;;;;4988481;28;20084;-80
2021/05/16 12:56:19;;;;;;;1.45;0.60;;;;;;;;;;4988649;28;20028;-79
2021/05/16 12:58:54;;;;;;;1.23;0.60;;;;;;;;;;4986042;28;20056;-80
2021/05/16 13:01:40;;;;;;;1.50;0.50;;;;;;;;;;5002009;28;20021;-80
2021/05/16 13:04:11;;;;;;;2.30;0.82;;;;;;;;;;5032169;28;20044;-80
2021/05/16 13:06:37;;;;;;;2.55;0.70;;;;;;;;;;4986457;28;20057;-82
2021/05/16 13:09:04;;;;;;;1.85;0.70;;;;;;;;;;4991306;28;20144;-78
2021/05/16 13:11:52;;;;;;;1.23;0.70;;;;;;;;;;4965469;28;20400;-80
2021/05/16 13:14:24;;;;;;;1.10;0.52;;;;;;;;;;4966010;28;20033;-78
2021/05/16 13:17:17;;;;;;;1.50;0.60;;;;;;;;;;4985235;28;20041;-79
2021/05/16 13:19:48;;;;;;;1.95;0.52;;;;;;;;;;5022741;28;20030;-79
2021/05/16 13:22:38;;;;;;;2.28;0.63;;;;;;;;;;5011826;28;20037;-78
2021/05/16 13:25:10;;;;;;;1.42;0.60;;;;;;;;;;5009374;28;20670;-79
2021/05/16 13:27:36;;;;;;;1.63;0.70;;;;;;;;;;5014145;28;20026;-79
2021/05/16 13:30:05;;;;;;;1.48;0.65;;;;;;;;;;5027765;28;20053;-79
2021/05/16 13:32:30;;;;;;;1.00;0.50;;;;;;;;;;4969667;28;20484;-80
2021/05/16 13:34:56;;;;;;;1.73;0.60;;;;;;;;;;5003712;28;20036;-81
2021/05/16 13:37:21;;;;;;;2.70;0.63;;;;;;;;;;5018986;28;20117;-82
2021/05/16 13:39:46;;;;;;;2.37;0.70;;;;;;;;;;4990053;28;20513;-83
2021/05/16 13:42:13;;;;;;;1.70;0.47;;;;;;;;;;4969823;28;20473;-83
2021/05/16 13:44:38;;;;;;;1.55;0.52;;;;;;;;;;5007975;28;20057;-84
2021/05/16 13:47:07;;;;;;;2.10;0.73;;;;;;;;;;4997915;28;20026;-83
2021/05/16 13:49:32;;;;;;;1.40;0.60;;;;;;;;;;4998656;28;20465;-83
2021/05/16 13:51:58;;;;;;;1.70;0.60;;;;;;;;;;4970661;28;20022;-84
2021/05/16 13:54:25;;;;;;;1.30;0.53;;;;;;;;;;4959350;28;20017;-84
2021/05/16 13:56:59;;;;;;;1.73;0.60;;;;;;;;;;4999047;28;20037;-84
2021/05/16 13:59:25;;;;;;;1.85;0.60;;;;;;;;;;4986385;28;20021;-84
2021/05/16 14:02:09;;;;;;;1.20;0.60;;;;;;;;;;5011954;28;20104;-80
2021/05/16 14:04:34;;;;;;;1.50;0.63;;;;;;;;;;5015470;28;20117;-80
2021/05/16 14:07:00;;;;;;;2.43;0.60;;;;;;;;;;5004455;28;20536;-80
2021/05/16 14:09:26;;;;;;;1.40;0.60;;;;;;;;;;5027733;28;20090;-81
2021/05/16 14:11:54;;;;;;;1.40;0.65;;;;;;;;;;5009980;28;20093;-79
2021/05/16 14:14:20;;;;;;;1.55;0.50;;;;;;;;;;4999451;28;20026;-81
2021/05/16 14:16:47;;;;;;;1.30;0.50;;;;;;;;;;4987601;28;20076;-84
2021/05/16 14:19:12;;;;;;;1.75;0.70;;;;;;;;;;4987475;28;20027;-81
2021/05/16 14:21:38;;;;;;;0.70;0.50;;;;;;;;;;4991679;28;20157;-80
2021/05/16 14:24:04;;;;;;;1.93;0.57;;;;;;;;;;5013717;28;20025;-81
2021/05/16 14:26:29;;;;;;;1.15;0.40;;;;;;;;;;5014105;28;20040;-81
2021/05/16 14:28:55;;;;;;;1.50;0.60;;;;;;;;;;5012462;28;20060;-78
2021/05/16 14:31:20;;;;;;;1.40;0.60;;;;;;;;;;5011461;28;20034;-79
2021/05/16 14:33:46;;;;;;;1.57;0.63;;;;;;;;;;5012864;28;20044;-79
2021/05/16 14:36:11;;;;;;;1.30;0.50;;;;;;;;;;4994281;28;20034;-80
2021/05/16 14:38:36;;;;;;;2.20;0.67;;;;;;;;;;5006814;28;20077;-78
2021/05/16 14:41:58;;;;;;;0.93;0.50;;;;;;;;;;5023978;28;20064;-79
2021/05/16 14:44:23;;;;;;;0.90;0.50;;;;;;;;;;5017716;28;20046;-78
2021/05/16 14:46:49;;;;;;;1.80;0.70;;;;;;;;;;5021928;28;20081;-79
2021/05/16 14:49:14;;;;;;;1.13;0.60;;;;;;;;;;5012652;28;20053;-79
2021/05/16 14:51:40;;;;;;;1.40;0.60;;;;;;;;;;5026376;28;20026;-79